Airfield :
LOGIN :

Register | Disclaimer

   EN    FR    IT 

 










Legend :    VFR   Marginal VFR   IFR   Intensive IFR   Very Intensive IFR
Visi :
Ceiling :
>= 8 km
>= 3000ft
5 to 8 km
1000 to 3000 ft
1500m to 5 km
500 to 1000 ft
800 to 1500m
200 to 500 ft
< 800m
< 200 ft
Symbols :   Thunderstorms  Fog  Heavy snow  Heavy precipitations  Wind > 20 kt
SIGMETs :     Misc.  Thunderstorms  Icing  Turbulence  Mountain Waves  Volcanic Ashes






- Airport Elevation : 506 ft
- IATA code : GOT


ESGG - Landvetter

CURRENT METAR :
  • 080350Z 10008KT 9999 SCT017 BKN040 M03/M06 Q1008

EXPIRED METARs :
  • 080320Z 10008KT 9999 FEW017 BKN040 M03/M06 Q1008
  • 080250Z 11009KT 9999 BKN041 M03/M06 Q1008
  • 080220Z 12011KT 9999 OVC043 M03/M06 Q1009
  • 080150Z 12012KT 9999 OVC044 M03/M07 Q1009
  • 080120Z 12013KT 9999 OVC045 M03/M07 Q1009

TAF TAF ESGG
Valid from the 08 at 00:00 until the 09 at 00:00 UTC


072330Z 0800/0824 12010KT 9999 OVC040
PROB40 0806/0818 BKN012
PROB40 0822/0824 BKN010



MET'MAP, your aeronautical weather chart ! - Copyright ORBIFLY December 2007 - Disclaimer

ORBIFLY MET'MAP TEAM :

Programming & Development : Alexandra Zaïnal
Concept & original design : Baudouin d'Aumeries
Assistance for programming : Marc-Olivier Méhu
Technical & hardware support : Manuel Goepfert

Contact : metmap@orbifly.com




SOURCES & CREDITS :

   NOAA